Time;durP1;ratioP1;P1;durP2;ratioP2;P2;SDS_P1;SDS_P2;PMS_P1;PMS_P2;Temp;Humidity;BMP_temperature;BMP_pressure;BME280_temperature;BME280_humidity;BME280_pressure;Samples;Min_cycle;Max_cycle;Signal;HPM_P1;HPM_P2
2023/08/11 00:01:36;;;;;;;21.70;14.70;;;;;;;12.77;100.00;101539.94;5021964;28;20425;-81
2023/08/11 00:04:07;;;;;;;19.70;14.40;;;;;;;12.72;100.00;101539.69;5035016;23;20516;-80
2023/08/11 00:06:37;;;;;;;22.67;16.03;;;;;;;12.73;100.00;101535.94;5030240;28;20446;-79
2023/08/11 00:09:11;;;;;;;18.17;16.23;;;;;;;12.62;100.00;101546.34;5028129;28;20441;-78
2023/08/11 00:11:41;;;;;;;18.67;14.70;;;;;;;12.54;100.00;101543.75;5033308;28;20433;-80
2023/08/11 00:14:10;;;;;;;19.90;13.33;;;;;;;12.51;100.00;101546.03;5024997;28;20548;-79
2023/08/11 00:16:39;;;;;;;16.23;13.87;;;;;;;12.53;100.00;101543.97;5025581;28;20492;-78
2023/08/11 00:19:08;;;;;;;17.43;14.37;;;;;;;12.45;100.00;101550.38;5027156;28;20404;-78
2023/08/11 00:21:37;;;;;;;18.07;13.30;;;;;;;12.45;100.00;101549.53;5025517;28;20420;-78
2023/08/11 00:24:08;;;;;;;15.30;13.20;;;;;;;12.45;100.00;101546.81;5011462;28;20429;-79
2023/08/11 00:26:37;;;;;;;20.13;13.40;;;;;;;12.45;100.00;101544.94;5007079;28;20426;-80
2023/08/11 00:29:07;;;;;;;12.77;11.43;;;;;;;12.56;100.00;101551.72;5011710;28;20413;-79
2023/08/11 00:31:36;;;;;;;16.17;12.50;;;;;;;12.48;100.00;101549.16;5014100;28;20431;-78
2023/08/11 00:34:06;;;;;;;14.10;11.37;;;;;;;12.46;100.00;101540.38;5017263;28;20450;-79
2023/08/11 00:36:35;;;;;;;14.40;11.90;;;;;;;12.46;100.00;101543.09;5013586;28;20413;-81
2023/08/11 00:39:05;;;;;;;18.30;13.90;;;;;;;12.54;100.00;101543.75;5017911;28;20437;-79
2023/08/11 00:41:36;;;;;;;18.67;13.60;;;;;;;12.45;100.00;101547.66;5025261;28;20459;-80
2023/08/11 00:44:05;;;;;;;14.30;12.27;;;;;;;12.64;100.00;101551.53;5018624;28;20470;-80
2023/08/11 00:46:35;;;;;;;13.90;11.50;;;;;;;12.84;100.00;101543.50;5017556;28;20408;-81
2023/08/11 00:49:05;;;;;;;12.47;11.20;;;;;;;12.87;100.00;101543.97;5029745;28;20434;-80
2023/08/11 00:51:35;;;;;;;13.87;12.03;;;;;;;12.93;100.00;101547.72;5023815;28;20473;-81
2023/08/11 00:54:06;;;;;;;15.80;12.43;;;;;;;12.70;100.00;101560.78;5017689;28;20451;-80
2023/08/11 00:56:37;;;;;;;17.37;12.20;;;;;;;12.57;100.00;101562.38;5021070;28;20440;-82
2023/08/11 00:59:09;;;;;;;15.40;12.57;;;;;;;12.44;100.00;101559.56;5015712;28;20499;-78
2023/08/11 01:01:40;;;;;;;20.57;14.23;;;;;;;12.47;100.00;101561.91;5018933;28;20873;-81
2023/08/11 01:04:09;;;;;;;14.50;13.00;;;;;;;12.48;100.00;101560.88;5014541;28;20464;-80
2023/08/11 01:06:46;;;;;;;15.70;12.23;;;;;;;12.41;100.00;101561.84;5012510;28;20515;-80
2023/08/11 01:09:28;;;;;;;15.70;12.37;;;;;;;12.45;100.00;101566.66;5019844;28;20494;-80
2023/08/11 01:13:01;;;;;;;16.10;13.07;;;;;;;12.27;100.00;101563.63;5023472;28;20425;-80
2023/08/11 01:15:38;;;;;;;15.30;11.63;;;;;;;12.24;100.00;101566.75;5018577;28;20895;-80
2023/08/11 01:18:08;;;;;;;16.60;12.80;;;;;;;12.50;100.00;101569.63;4998373;28;20525;-80
2023/08/11 01:20:40;;;;;;;16.90;13.43;;;;;;;12.40;100.00;101569.13;5020151;28;20403;-80
2023/08/11 01:23:19;;;;;;;14.83;12.90;;;;;;;12.28;100.00;101559.88;5017592;28;20430;-80
2023/08/11 01:25:49;;;;;;;16.73;13.27;;;;;;;12.56;100.00;101563.41;5024119;28;20460;-79
2023/08/11 01:28:18;;;;;;;15.47;13.20;;;;;;;12.57;100.00;101564.25;5014250;28;20441;-80
2023/08/11 01:30:48;;;;;;;16.13;12.50;;;;;;;12.38;100.00;101560.38;4999229;28;20473;-81
2023/08/11 01:33:17;;;;;;;15.50;12.73;;;;;;;12.23;100.00;101556.91;5012408;28;20458;-79
2023/08/11 01:35:46;;;;;;;14.40;12.90;;;;;;;12.24;100.00;101561.31;5013677;28;20425;-78
2023/08/11 01:38:17;;;;;;;14.00;11.30;;;;;;;12.37;100.00;101561.41;5012271;28;20467;-79
2023/08/11 01:40:47;;;;;;;13.80;11.80;;;;;;;12.29;100.00;101558.84;5022079;28;20415;-78
2023/08/11 01:43:17;;;;;;;12.33;10.93;;;;;;;12.26;100.00;101550.25;5022901;28;20520;-78
2023/08/11 01:45:48;;;;;;;15.17;12.23;;;;;;;12.29;100.00;101556.13;4995805;28;20440;-78
2023/08/11 01:48:20;;;;;;;17.97;11.53;;;;;;;12.21;100.00;101545.41;5009209;28;20464;-77
2023/08/11 01:50:50;;;;;;;13.50;11.57;;;;;;;12.18;100.00;101553.94;4995664;28;20495;-78
2023/08/11 01:53:20;;;;;;;13.93;12.40;;;;;;;12.24;100.00;101547.75;5010898;28;20512;-79
2023/08/11 01:55:50;;;;;;;15.93;14.30;;;;;;;12.25;100.00;101546.69;5003373;28;20455;-77
2023/08/11 01:58:20;;;;;;;20.63;13.83;;;;;;;12.24;100.00;101557.75;4996842;28;20438;-77
2023/08/11 02:00:49;;;;;;;20.80;12.87;;;;;;;12.23;100.00;101556.91;4991467;28;20419;-77
2023/08/11 02:03:19;;;;;;;16.80;12.60;;;;;;;12.37;100.00;101564.13;5007610;28;20509;-78
2023/08/11 02:05:48;;;;;;;18.00;13.30;;;;;;;12.49;100.00;101559.81;5012167;28;20447;-78
2023/08/11 02:08:21;;;;;;;13.13;11.73;;;;;;;12.53;100.00;101561.09;5014528;28;20385;-79
2023/08/11 02:10:50;;;;;;;16.70;14.10;;;;;;;12.51;100.00;101565.03;5012645;28;20407;-79
2023/08/11 02:13:20;;;;;;;15.73;12.70;;;;;;;12.55;100.00;101559.00;5002427;28;20448;-78
2023/08/11 02:15:49;;;;;;;16.00;12.20;;;;;;;12.66;100.00;101567.66;5003666;28;20426;-77
2023/08/11 02:18:18;;;;;;;14.80;12.40;;;;;;;12.83;100.00;101563.59;5013650;28;20461;-77
2023/08/11 02:20:47;;;;;;;13.83;12.40;;;;;;;12.89;100.00;101558.16;5018190;28;20453;-79
2023/08/11 02:23:16;;;;;;;14.87;13.30;;;;;;;13.01;100.00;101561.16;5000943;28;20441;-79
2023/08/11 02:25:47;;;;;;;14.60;12.07;;;;;;;13.10;100.00;101549.06;5016588;28;20464;-79
2023/08/11 02:28:17;;;;;;;14.93;11.40;;;;;;;13.09;100.00;101552.81;4996630;28;20438;-79
2023/08/11 02:30:46;;;;;;;14.20;12.70;;;;;;;13.02;100.00;101551.97;5000702;28;20425;-79
2023/08/11 02:33:18;;;;;;;17.00;12.40;;;;;;;13.02;100.00;101551.97;5020535;28;20429;-79
2023/08/11 02:35:47;;;;;;;15.33;12.00;;;;;;;13.07;100.00;101552.19;5014967;28;20483;-79
2023/08/11 02:38:18;;;;;;;15.30;13.13;;;;;;;13.14;100.00;101554.97;5022143;28;20455;-80
2023/08/11 02:40:48;;;;;;;16.80;13.33;;;;;;;13.21;100.00;101556.69;5014798;28;20511;-80
2023/08/11 02:43:18;;;;;;;15.67;11.27;;;;;;;13.26;100.00;101558.78;5006754;28;20419;-82
2023/08/11 02:45:47;;;;;;;16.40;12.40;;;;;;;13.27;100.00;101555.84;5015499;28;20469;-79
2023/08/11 02:48:16;;;;;;;16.53;12.37;;;;;;;13.37;100.00;101559.03;5019377;28;20384;-81
2023/08/11 02:50:46;;;;;;;17.20;12.63;;;;;;;13.46;100.00;101565.94;5015808;28;20463;-80
2023/08/11 02:53:15;;;;;;;13.33;11.77;;;;;;;13.47;100.00;101554.03;5005420;28;20626;-81
2023/08/11 02:55:44;;;;;;;15.30;13.47;;;;;;;13.55;100.00;101552.19;5008094;28;20395;-81
2023/08/11 02:58:15;;;;;;;13.77;11.63;;;;;;;13.55;100.00;101557.63;5024583;28;20432;-79
2023/08/11 03:00:45;;;;;;;14.93;12.00;;;;;;;13.68;100.00;101547.59;5020306;28;20407;-80
2023/08/11 03:03:14;;;;;;;15.00;12.70;;;;;;;13.71;100.00;101551.78;5009724;28;20440;-81
2023/08/11 03:05:45;;;;;;;17.30;11.17;;;;;;;13.67;100.00;101551.38;5017496;28;20485;-81
2023/08/11 03:08:14;;;;;;;16.00;12.40;;;;;;;13.65;100.00;101552.63;5025726;28;20385;-80
2023/08/11 03:10:43;;;;;;;14.77;12.67;;;;;;;13.73;100.00;101555.16;5050477;28;20434;-79
2023/08/11 03:13:29;;;;;;;12.73;11.47;;;;;;;13.77;100.00;101548.25;5012104;28;20408;-80
2023/08/11 03:15:59;;;;;;;15.33;11.50;;;;;;;13.96;100.00;101550.13;4997240;28;20931;-80
2023/08/11 03:18:30;;;;;;;16.23;11.10;;;;;;;13.97;100.00;101545.53;5005745;28;20487;-80
2023/08/11 03:21:02;;;;;;;15.80;13.00;;;;;;;14.00;100.00;101543.22;4997113;28;20433;-80
2023/08/11 03:23:49;;;;;;;18.93;13.53;;;;;;;13.99;100.00;101543.47;5021513;28;20551;-80
2023/08/11 03:26:20;;;;;;;17.83;11.40;;;;;;;14.03;100.00;101540.09;5014976;28;20496;-79
2023/08/11 03:28:51;;;;;;;15.57;12.23;;;;;;;14.00;100.00;101542.38;5004741;28;20433;-79
2023/08/11 03:31:20;;;;;;;13.57;11.97;;;;;;;14.08;100.00;101534.03;5025225;28;20425;-78
2023/08/11 03:33:52;;;;;;;14.00;11.70;;;;;;;14.13;100.00;101537.81;4985113;28;20448;-79
2023/08/11 03:36:22;;;;;;;14.83;11.07;;;;;;;14.26;100.00;101540.50;5016506;28;20427;-80
2023/08/11 03:38:51;;;;;;;15.07;11.23;;;;;;;14.30;100.00;101539.03;5024490;28;20472;-80
2023/08/11 03:41:21;;;;;;;13.33;10.90;;;;;;;14.27;100.00;101536.75;5011008;28;20404;-79
2023/08/11 03:43:52;;;;;;;13.70;10.80;;;;;;;14.24;100.00;101534.44;5007838;28;20427;-80
2023/08/11 03:46:22;;;;;;;12.30;10.37;;;;;;;14.29;100.00;101537.34;5027488;28;20476;-80
2023/08/11 03:48:51;;;;;;;15.63;12.00;;;;;;;14.30;100.00;101539.03;5007039;28;20445;-81
2023/08/11 03:51:20;;;;;;;18.17;11.93;;;;;;;14.35;100.00;101533.78;5020215;28;20439;-80
2023/08/11 03:53:50;;;;;;;13.43;11.70;;;;;;;14.32;100.00;101542.41;4997653;28;20432;-79
2023/08/11 03:56:19;;;;;;;16.50;11.80;;;;;;;14.28;100.00;101543.03;5020572;28;20446;-79
2023/08/11 03:58:49;;;;;;;14.13;12.00;;;;;;;14.23;100.00;101538.19;4998762;28;20472;-80
2023/08/11 04:01:19;;;;;;;12.87;11.60;;;;;;;14.23;100.00;101540.09;5009032;28;20404;-79
2023/08/11 04:03:49;;;;;;;13.63;11.90;;;;;;;14.28;99.75;101543.03;5019242;28;20559;-81
2023/08/11 04:06:18;;;;;;;14.70;10.60;;;;;;;14.25;99.44;101541.56;5020564;28;20601;-79
2023/08/11 04:08:47;;;;;;;16.60;12.63;;;;;;;14.28;99.46;101532.94;5015669;28;20404;-79
2023/08/11 04:11:16;;;;;;;14.40;11.90;;;;;;;14.37;99.35;101539.06;5027590;28;20798;-79
2023/08/11 04:13:46;;;;;;;15.90;13.43;;;;;;;14.50;98.66;101541.75;5023456;28;20447;-80
2023/08/11 04:16:15;;;;;;;14.17;12.63;;;;;;;14.57;98.20;101536.31;5008842;28;20393;-79
2023/08/11 04:18:46;;;;;;;17.17;13.07;;;;;;;14.64;97.69;101542.56;5022889;28;20444;-79
2023/08/11 04:21:17;;;;;;;13.73;12.33;;;;;;;14.85;97.02;101544.19;5010591;28;20873;-79
2023/08/11 04:23:47;;;;;;;17.63;13.60;;;;;;;14.99;95.92;101546.66;5008236;28;20535;-80
2023/08/11 04:26:16;;;;;;;16.27;12.20;;;;;;;14.98;96.19;101544.16;5002606;28;20997;-78
2023/08/11 04:28:45;;;;;;;16.30;14.00;;;;;;;14.96;95.88;101547.06;4992014;28;20461;-80
2023/08/11 04:31:17;;;;;;;16.07;13.33;;;;;;;14.98;95.96;101550.44;5013636;28;20405;-78
2023/08/11 04:33:48;;;;;;;17.57;12.60;;;;;;;15.10;96.19;101548.69;5013979;28;20477;-79
2023/08/11 04:36:17;;;;;;;17.63;13.83;;;;;;;15.51;93.84;101551.06;5010496;28;20800;-80
2023/08/11 04:38:47;;;;;;;18.97;13.83;;;;;;;16.39;89.70;101557.31;5013472;28;20416;-81
2023/08/11 04:41:16;;;;;;;15.03;13.43;;;;;;;17.72;81.65;101555.53;5015108;28;20488;-79
2023/08/11 04:43:46;;;;;;;16.33;14.03;;;;;;;18.67;75.86;101556.28;4998278;28;20437;-78
2023/08/11 04:46:15;;;;;;;14.03;12.20;;;;;;;19.33;71.30;101552.19;4996644;28;20538;-78
2023/08/11 04:48:45;;;;;;;14.77;12.60;;;;;;;19.81;68.46;101556.44;4991012;28;20458;-79
2023/08/11 04:51:16;;;;;;;14.80;12.97;;;;;;;19.43;69.44;101559.81;5008911;28;20805;-80
2023/08/11 04:53:45;;;;;;;15.50;12.83;;;;;;;18.45;73.33;101560.66;4995701;28;20487;-80
2023/08/11 04:56:14;;;;;;;20.73;12.87;;;;;;;17.53;78.91;101564.84;5003332;28;20412;-79
2023/08/11 04:58:43;;;;;;;16.50;13.60;;;;;;;17.11;81.53;101568.56;5000070;28;20445;-80
2023/08/11 05:01:14;;;;;;;16.93;13.03;;;;;;;16.88;84.71;101572.00;4997632;28;21015;-79
2023/08/11 05:03:44;;;;;;;14.50;12.80;;;;;;;18.09;79.24;101563.63;4999434;28;20527;-79
2023/08/11 05:06:14;;;;;;;17.70;14.10;;;;;;;19.22;73.04;101577.75;5019418;28;20433;-81
2023/08/11 05:08:44;;;;;;;13.97;12.53;;;;;;;20.13;69.10;101578.72;5013940;28;20456;-79
2023/08/11 05:11:14;;;;;;;13.47;11.67;;;;;;;21.43;63.55;101579.00;5016681;28;20407;-80
2023/08/11 05:13:43;;;;;;;13.07;11.77;;;;;;;22.41;59.21;101579.69;5023730;28;20467;-79
2023/08/11 05:16:12;;;;;;;15.90;12.33;;;;;;;23.97;54.53;101587.03;5014413;28;20445;-80
2023/08/11 05:18:42;;;;;;;15.80;13.20;;;;;;;24.70;51.86;101591.22;4995672;28;20434;-79
2023/08/11 05:21:13;;;;;;;18.83;12.17;;;;;;;25.42;49.62;101596.28;5014407;28;20447;-78
2023/08/11 05:23:43;;;;;;;13.23;11.30;;;;;;;24.40;50.44;101592.06;5018018;28;20476;-78
2023/08/11 05:26:13;;;;;;;13.70;11.60;;;;;;;22.57;55.71;101586.13;5002310;28;20458;-78
2023/08/11 05:28:43;;;;;;;15.80;10.40;;;;;;;20.93;61.16;101590.16;5013367;28;20458;-79
2023/08/11 05:31:12;;;;;;;14.60;9.93;;;;;;;20.04;63.97;101583.78;5026357;28;20465;-80
2023/08/11 05:33:41;;;;;;;13.80;11.00;;;;;;;19.55;65.99;101584.50;5019329;28;20457;-79
2023/08/11 05:36:10;;;;;;;17.70;9.27;;;;;;;19.16;67.49;101589.72;5024309;28;20436;-79
2023/08/11 05:38:40;;;;;;;10.93;8.03;;;;;;;18.98;68.53;101584.38;5018042;28;20430;-79
2023/08/11 05:41:11;;;;;;;11.30;8.17;;;;;;;18.83;69.06;101589.53;5022148;28;20384;-79
2023/08/11 05:43:40;;;;;;;11.80;8.77;;;;;;;18.88;68.81;101592.41;4995581;28;20462;-79
2023/08/11 05:46:10;;;;;;;8.63;7.67;;;;;;;19.03;68.70;101585.31;5010506;28;20469;-79
2023/08/11 05:48:40;;;;;;;14.23;7.10;;;;;;;19.29;67.41;101594.94;5017207;28;20485;-78
2023/08/11 05:51:09;;;;;;;10.70;8.30;;;;;;;19.64;64.83;101585.78;5018057;28;20451;-78
2023/08/11 05:53:38;;;;;;;13.17;7.53;;;;;;;19.85;63.56;101590.56;5017895;28;20452;-79
2023/08/11 05:56:07;;;;;;;10.90;7.10;;;;;;;19.93;62.03;101593.75;5024779;28;20963;-80
2023/08/11 05:58:37;;;;;;;11.40;7.47;;;;;;;19.94;61.72;101591.84;5015831;28;20513;-79
2023/08/11 06:01:07;;;;;;;10.20;7.67;;;;;;;19.87;62.72;101592.00;5006436;28;20472;-80
2023/08/11 06:04:04;;;;;;;12.00;7.40;;;;;;;19.80;62.46;101591.28;5035227;22;20477;-89
2023/08/11 06:06:34;;;;;;;11.73;7.20;;;;;;;19.91;62.40;101603.31;5007103;28;20438;-79
2023/08/11 06:09:05;;;;;;;16.27;8.00;;;;;;;19.86;62.76;101600.47;5006416;28;20541;-80
2023/08/11 06:11:36;;;;;;;9.83;8.10;;;;;;;19.71;63.10;101594.69;5002533;28;20412;-78
2023/08/11 06:14:07;;;;;;;9.10;6.47;;;;;;;19.80;62.92;101595.97;5000422;28;20483;-78
2023/08/11 06:16:37;;;;;;;9.90;7.43;;;;;;;19.83;62.89;101600.97;4981400;28;20446;-78
2023/08/11 06:19:07;;;;;;;8.43;7.47;;;;;;;19.99;64.16;101610.31;4991518;28;20447;-78
2023/08/11 06:21:37;;;;;;;7.10;6.40;;;;;;;20.06;63.70;101600.84;4998154;28;20772;-79
2023/08/11 06:24:07;;;;;;;10.43;6.67;;;;;;;20.09;64.09;101596.78;5000179;28;20493;-80
2023/08/11 06:26:37;;;;;;;14.70;7.60;;;;;;;20.31;62.35;101604.06;5015474;28;20501;-80
2023/08/11 06:29:08;;;;;;;8.40;7.03;;;;;;;20.30;62.38;101607.00;5015253;28;20461;-79
2023/08/11 06:31:38;;;;;;;12.83;6.70;;;;;;;20.20;62.41;101602.19;5017877;28;20469;-78
2023/08/11 06:34:09;;;;;;;8.07;6.27;;;;;;;20.09;63.02;101592.09;5014532;28;20420;-81
2023/08/11 06:36:39;;;;;;;16.30;7.63;;;;;;;20.12;61.42;101594.34;5007210;28;20440;-81
2023/08/11 06:39:09;;;;;;;9.23;6.63;;;;;;;20.53;61.17;101606.03;4985106;28;20441;-81
2023/08/11 06:41:39;;;;;;;9.63;6.77;;;;;;;20.55;60.53;101620.38;5006793;28;20413;-80
2023/08/11 06:44:10;;;;;;;9.23;7.00;;;;;;;20.40;60.02;101618.22;5005185;28;20950;-81
2023/08/11 06:46:40;;;;;;;10.17;6.00;;;;;;;20.21;61.54;101614.00;4988901;28;20508;-80
2023/08/11 06:49:10;;;;;;;7.87;6.03;;;;;;;20.17;61.10;101624.66;4998228;28;20439;-80
2023/08/11 06:51:39;;;;;;;11.33;7.47;;;;;;;20.07;62.94;101624.50;4991575;28;20453;-79
2023/08/11 06:54:09;;;;;;;7.70;5.73;;;;;;;20.27;60.28;101624.00;4993364;28;20542;-79
2023/08/11 06:56:39;;;;;;;12.67;5.43;;;;;;;20.13;61.36;101634.50;5004635;28;20935;-81
2023/08/11 06:59:09;;;;;;;12.80;5.83;;;;;;;20.14;61.41;101636.13;4993561;28;20985;-82
2023/08/11 07:01:39;;;;;;;7.87;5.93;;;;;;;20.18;61.65;101642.84;5001728;28;20427;-81
2023/08/11 07:04:08;;;;;;;9.37;6.20;;;;;;;20.25;62.56;101642.66;4993983;28;20421;-80
2023/08/11 07:06:38;;;;;;;13.87;6.40;;;;;;;20.32;61.67;101644.22;5007293;28;20426;-81
2023/08/11 07:09:08;;;;;;;7.47;5.87;;;;;;;20.06;62.89;101650.28;5006249;28;20461;-79
2023/08/11 07:11:37;;;;;;;8.10;5.30;;;;;;;19.98;61.50;101639.72;5004711;28;20407;-80
2023/08/11 07:14:07;;;;;;;6.63;4.70;;;;;;;20.14;61.05;101652.63;4997067;28;20457;-80
2023/08/11 07:16:37;;;;;;;7.83;4.43;;;;;;;20.15;61.00;101648.81;5003499;28;20408;-79
2023/08/11 07:19:07;;;;;;;6.80;4.70;;;;;;;20.57;60.82;101645.72;5000348;28;20405;-80
2023/08/11 07:21:37;;;;;;;6.40;4.30;;;;;;;20.64;59.53;101641.72;4979429;28;20549;-80
2023/08/11 07:24:13;;;;;;;5.10;4.60;;;;;;;20.78;58.12;101642.19;4988235;28;20430;-81
2023/08/11 07:26:45;;;;;;;11.10;5.13;;;;;;;20.98;56.95;101648.00;4971939;28;20417;-79
2023/08/11 07:29:16;;;;;;;7.13;4.10;;;;;;;21.21;55.74;101647.81;4991026;28;20512;-80
2023/08/11 07:31:47;;;;;;;7.50;4.50;;;;;;;21.33;55.81;101649.63;4998989;28;20810;-81
2023/08/11 07:34:19;;;;;;;8.70;4.90;;;;;;;21.59;56.25;101646.09;4978568;28;20822;-81
2023/08/11 07:36:49;;;;;;;10.97;4.90;;;;;;;21.94;54.23;101649.28;4992926;28;20517;-80
2023/08/11 07:39:18;;;;;;;7.53;4.53;;;;;;;22.09;53.62;101652.19;4989166;28;20542;-79
2023/08/11 07:41:52;;;;;;;6.23;3.77;;;;;;;22.12;51.79;101652.78;4979253;28;20474;-80
2023/08/11 07:44:22;;;;;;;7.40;4.00;;;;;;;22.10;53.10;101653.88;4986345;28;20550;-84
2023/08/11 07:46:56;;;;;;;9.63;5.10;;;;;;;22.27;52.90;101656.50;4986880;28;20478;-79
2023/08/11 07:49:27;;;;;;;8.17;3.37;;;;;;;22.42;52.25;101644.75;5004296;28;20519;-80
2023/08/11 07:51:58;;;;;;;6.73;4.00;;;;;;;22.43;50.96;101652.78;4983304;28;20471;-83
2023/08/11 07:54:28;;;;;;;6.40;4.00;;;;;;;22.40;52.17;101655.25;4980344;28;20480;-80
2023/08/11 07:56:58;;;;;;;6.77;4.13;;;;;;;22.78;51.16;101648.69;4977818;28;20473;-81
2023/08/11 07:59:29;;;;;;;8.97;3.73;;;;;;;22.62;50.95;101655.97;4984475;28;20442;-81
2023/08/11 08:02:00;;;;;;;9.40;3.60;;;;;;;22.42;50.03;101650.28;4989071;28;20451;-79
2023/08/11 08:04:29;;;;;;;8.10;3.30;;;;;;;22.36;50.76;101659.63;4992654;28;20541;-80
2023/08/11 08:06:59;;;;;;;6.57;4.37;;;;;;;22.21;51.14;101662.25;5008118;28;20430;-84
2023/08/11 08:09:33;;;;;;;6.03;3.57;;;;;;;22.24;50.94;101656.19;4989345;28;20437;-79
2023/08/11 08:12:06;;;;;;;6.40;4.90;;;;;;;22.38;51.72;101655.50;4983083;28;20493;-81
2023/08/11 08:14:42;;;;;;;8.60;4.67;;;;;;;22.50;50.05;101647.91;4986145;28;20463;-82
2023/08/11 08:17:13;;;;;;;4.20;3.33;;;;;;;22.43;50.63;101640.91;4996135;28;20411;-82
2023/08/11 08:19:43;;;;;;;6.40;3.53;;;;;;;22.40;50.18;101649.72;5007542;28;20498;-80
2023/08/11 08:22:12;;;;;;;5.87;3.70;;;;;;;22.51;52.40;101641.25;4985058;28;20447;-79
2023/08/11 08:24:42;;;;;;;4.17;3.57;;;;;;;22.35;49.90;101636.72;4986642;28;20477;-80
2023/08/11 08:27:13;;;;;;;7.53;4.03;;;;;;;22.00;50.73;101642.72;4988953;28;20442;-78
2023/08/11 08:29:45;;;;;;;4.77;3.37;;;;;;;22.17;50.24;101639.88;4989744;28;20472;-81
2023/08/11 08:32:17;;;;;;;6.37;3.30;;;;;;;22.30;50.20;101644.13;4983587;28;20526;-84
2023/08/11 08:34:48;;;;;;;10.23;3.80;;;;;;;22.40;48.68;101652.47;5007015;28;20438;-83
2023/08/11 08:37:19;;;;;;;4.37;3.10;;;;;;;22.19;48.76;101647.88;4983054;28;20437;-82
2023/08/11 08:39:50;;;;;;;5.27;2.83;;;;;;;22.23;49.67;101644.31;4978108;28;20470;-81
2023/08/11 08:42:21;;;;;;;6.37;2.90;;;;;;;22.46;48.92;101643.16;4980460;28;20418;-80
2023/08/11 08:44:52;;;;;;;5.33;2.87;;;;;;;22.41;48.97;101645.88;4978319;28;20465;-81
2023/08/11 08:47:26;;;;;;;5.03;3.73;;;;;;;22.72;49.85;101653.31;4984426;28;20435;-82
2023/08/11 08:49:57;;;;;;;5.80;3.20;;;;;;;22.78;47.41;101651.44;4986737;28;20471;-79
2023/08/11 08:52:28;;;;;;;5.53;2.97;;;;;;;22.55;46.80;101652.63;4990854;28;20446;-81
2023/08/11 08:55:00;;;;;;;3.67;2.80;;;;;;;22.54;46.67;101656.47;4996020;28;20462;-80
2023/08/11 08:57:29;;;;;;;10.20;3.40;;;;;;;22.72;47.35;101652.50;4991698;28;20467;-79
2023/08/11 08:59:59;;;;;;;8.13;2.80;;;;;;;22.81;47.16;101648.97;5014446;28;20437;-82
2023/08/11 09:02:30;;;;;;;5.00;2.57;;;;;;;22.95;47.52;101652.09;4986158;28;20442;-78
2023/08/11 09:05:01;;;;;;;6.93;3.10;;;;;;;23.08;47.85;101654.41;4984379;28;20470;-83
2023/08/11 09:07:31;;;;;;;8.23;3.20;;;;;;;23.29;48.68;101644.28;5005590;28;20434;-84
2023/08/11 09:10:00;;;;;;;7.27;2.93;;;;;;;23.37;46.75;101646.56;4985524;28;20509;-83
2023/08/11 09:12:31;;;;;;;8.20;3.30;;;;;;;23.50;46.94;101648.84;5009437;28;20534;-80
2023/08/11 09:15:09;;;;;;;6.83;3.10;;;;;;;23.61;46.64;101653.31;4997302;28;20500;-79
2023/08/11 09:17:41;;;;;;;10.50;2.83;;;;;;;23.75;46.52;101657.22;4991064;28;20453;-84
2023/08/11 09:20:13;;;;;;;4.90;2.73;;;;;;;23.68;46.65;101662.16;4993648;28;20467;-82
2023/08/11 09:22:43;;;;;;;7.20;2.63;;;;;;;23.79;46.33;101647.28;5012783;28;20442;-81
2023/08/11 09:25:14;;;;;;;3.17;2.37;;;;;;;23.94;45.98;101657.56;4996642;28;20841;-80
2023/08/11 09:27:44;;;;;;;4.73;2.37;;;;;;;24.00;45.06;101664.75;4988750;28;20423;-81
2023/08/11 09:30:15;;;;;;;11.73;2.87;;;;;;;23.89;45.69;101654.78;4992425;28;20471;-82
2023/08/11 09:32:50;;;;;;;3.73;2.47;;;;;;;23.63;46.08;101664.91;4990031;28;20450;-79
2023/08/11 09:35:24;;;;;;;5.73;2.70;;;;;;;23.21;46.84;101661.38;4999660;28;20965;-80
2023/08/11 09:37:55;;;;;;;4.23;2.33;;;;;;;23.12;47.39;101662.97;4983400;28;20455;-80
2023/08/11 09:40:24;;;;;;;4.87;2.50;;;;;;;23.52;46.19;101668.75;4981030;28;20446;-79
2023/08/11 09:42:56;;;;;;;2.53;1.60;;;;;;;23.37;45.95;101660.34;4994881;28;20979;-79
2023/08/11 09:45:26;;;;;;;6.60;1.97;;;;;;;23.17;46.98;101663.84;4987230;28;20538;-83
2023/08/11 09:47:57;;;;;;;5.07;1.97;;;;;;;23.12;47.03;101669.34;4989930;28;20446;-82
2023/08/11 09:50:28;;;;;;;5.77;2.40;;;;;;;23.16;47.31;101666.88;5002709;28;20522;-79
2023/08/11 09:53:01;;;;;;;5.87;2.67;;;;;;;23.32;47.65;101668.63;5001959;28;20438;-82
2023/08/11 09:55:32;;;;;;;8.03;2.03;;;;;;;23.63;47.01;101673.19;4992398;28;20477;-82
2023/08/11 09:58:04;;;;;;;2.57;1.70;;;;;;;23.80;46.71;101664.69;4996956;28;20427;-83
2023/08/11 10:00:34;;;;;;;2.57;1.70;;;;;;;24.01;47.11;101665.59;4994083;28;20423;-84
2023/08/11 10:03:09;;;;;;;9.67;1.80;;;;;;;24.50;45.48;101675.06;4992781;28;20446;-81
2023/08/11 10:05:43;;;;;;;4.07;2.17;;;;;;;25.57;43.82;101667.44;4986854;28;20478;-86
2023/08/11 10:08:18;;;;;;;3.00;1.30;;;;;;;25.72;42.41;101680.41;4997811;28;20537;-84
2023/08/11 10:10:48;;;;;;;2.97;1.50;;;;;;;25.87;42.60;101675.63;5006386;28;20497;-86
2023/08/11 10:13:22;;;;;;;1.83;1.50;;;;;;;25.38;42.69;101674.69;4988030;28;20434;-83
2023/08/11 10:15:53;;;;;;;7.23;1.97;;;;;;;25.16;44.43;101668.69;4985114;28;20469;-81
2023/08/11 10:18:24;;;;;;;3.10;1.90;;;;;;;24.98;44.93;101664.56;4971579;28;20449;-82
2023/08/11 10:20:56;;;;;;;2.37;1.57;;;;;;;25.22;44.74;101665.63;4984785;28;20454;-81
2023/08/11 10:23:27;;;;;;;1.90;1.50;;;;;;;24.68;45.23;101666.25;4999730;28;20488;-82
2023/08/11 10:25:57;;;;;;;2.37;1.47;;;;;;;24.40;45.95;101664.00;4984546;28;20437;-82
2023/08/11 10:28:27;;;;;;;2.27;1.63;;;;;;;24.37;47.13;101660.97;4995867;28;20437;-78
2023/08/11 10:30:58;;;;;;;4.40;1.50;;;;;;;24.20;47.43;101658.47;5001586;28;20473;-81
2023/08/11 10:33:32;;;;;;;3.07;1.90;;;;;;;24.16;47.41;101666.47;4990404;28;20453;-82
2023/08/11 10:36:03;;;;;;;2.40;1.80;;;;;;;24.36;48.14;101668.44;4991851;28;20418;-83
2023/08/11 10:38:34;;;;;;;2.47;1.77;;;;;;;24.56;46.06;101668.44;5010245;28;20445;-83
2023/08/11 10:41:06;;;;;;;3.63;1.57;;;;;;;24.72;46.80;101662.91;4998363;28;20742;-83
2023/08/11 10:43:37;;;;;;;3.40;2.17;;;;;;;25.10;46.51;101659.56;5015410;28;20448;-82
2023/08/11 10:46:29;;;;;;;2.17;1.70;;;;;;;25.56;45.92;101649.19;5011192;28;20436;-81
2023/08/11 10:49:19;;;;;;;2.53;1.90;;;;;;;25.77;44.45;101652.66;4983084;28;20462;-82
2023/08/11 10:51:49;;;;;;;2.00;1.70;;;;;;;25.34;44.71;101656.97;4989282;28;20466;-81
2023/08/11 10:54:26;;;;;;;2.97;1.40;;;;;;;24.42;46.04;101649.91;4987184;28;20843;-82
2023/08/11 10:56:59;;;;;;;7.23;2.10;;;;;;;24.35;47.07;101655.69;5004145;28;20440;-80
2023/08/11 10:59:34;;;;;;;3.17;2.13;;;;;;;24.56;47.51;101657.38;4989772;28;20449;-81
2023/08/11 11:02:05;;;;;;;6.63;2.00;;;;;;;24.58;46.88;101654.34;4987604;28;20454;-81
2023/08/11 11:04:37;;;;;;;4.83;3.60;;;;;;;25.16;47.04;101649.28;4979331;28;20485;-82
2023/08/11 11:07:06;;;;;;;5.27;2.53;;;;;;;25.94;44.05;101659.53;4982585;28;20483;-81
2023/08/11 11:09:36;;;;;;;4.90;2.73;;;;;;;26.05;43.62;101649.16;5005970;28;20495;-81
2023/08/11 11:12:06;;;;;;;7.50;2.43;;;;;;;25.71;44.63;101657.41;4990296;28;20443;-80
2023/08/11 11:14:37;;;;;;;3.47;2.07;;;;;;;25.14;44.88;101651.50;4993659;28;20585;-80
2023/08/11 11:17:07;;;;;;;4.00;2.47;;;;;;;24.87;44.92;101646.31;4989294;28;20456;-82
2023/08/11 11:19:38;;;;;;;2.90;2.53;;;;;;;24.51;47.12;101643.53;5018895;28;20506;-82
2023/08/11 11:22:09;;;;;;;3.23;2.77;;;;;;;24.80;47.24;101642.97;5010648;28;20427;-81
2023/08/11 11:24:39;;;;;;;2.30;1.60;;;;;;;25.19;46.53;101640.41;5001455;28;20462;-82
2023/08/11 11:27:08;;;;;;;2.23;1.90;;;;;;;25.37;45.66;101637.84;5014686;28;20410;-80
2023/08/11 11:29:39;;;;;;;2.43;2.13;;;;;;;25.18;44.49;101642.34;5001192;28;20452;-81
2023/08/11 11:32:10;;;;;;;2.37;1.87;;;;;;;24.77;45.99;101640.75;5009451;28;20481;-83